Lemont, Illinois
Current Conditions -  °F | °C
As of 8:35 AM on Saturday 25 Oct 2014 (Local Time) from KLOT Reporting Station
Haze Haze  
Wind Chill: 57°   Ceiling: Unl
Heat Index: 57°   Visibility: 3mi
Dew Point: 57°   Wind: 7mph
Humidity: 98%   Direction: 270°W
Pressure: 29.95"   Gusts: NA
Location:  41.67°N, 88°W
Report Text: KLOT 251335Z AUTO 27006KT 3SM BR CLR 14/14 A2995 RMK AO2 T01410138
Loading
Personal Weather Stations






























Interactive Weather Map
Tropical Storm Tracking
New forecast layout! Learn more

10-Day Weather Forecast

Advertisements
Track Severe Weather on mobile